Time;durP1;ratioP1;P1;durP2;ratioP2;P2;SDS_P1;SDS_P2;PMS_P1;PMS_P2;Temp;Humidity;BMP_temperature;BMP_pressure;BME280_temperature;BME280_humidity;BME280_pressure;Samples;Min_cycle;Max_cycle;Signal;HPM_P1;HPM_P2
2023/08/01 00:00:42;;;;;;;6.85;2.88;;;;;;;;;;5058932;28;20206;-88
2023/08/01 00:03:09;;;;;;;5.57;2.70;;;;;;;;;;5056269;28;20710;-88
2023/08/01 00:05:38;;;;;;;6.80;3.38;;;;;;;;;;5057241;28;20209;-89
2023/08/01 00:08:05;;;;;;;7.00;2.97;;;;;;;;;;5056305;28;20256;-90
2023/08/01 00:10:32;;;;;;;4.97;2.70;;;;;;;;;;5057584;28;20206;-88
2023/08/01 00:12:59;;;;;;;6.00;3.50;;;;;;;;;;5056955;28;20700;-89
2023/08/01 00:15:26;;;;;;;5.22;3.47;;;;;;;;;;5057790;28;20698;-90
2023/08/01 00:17:54;;;;;;;4.68;2.80;;;;;;;;;;5057530;28;20241;-90
2023/08/01 00:20:21;;;;;;;4.63;3.10;;;;;;;;;;5057680;28;20684;-89
2023/08/01 00:22:49;;;;;;;3.93;2.97;;;;;;;;;;5056118;28;20234;-88
2023/08/01 00:25:16;;;;;;;3.90;3.00;;;;;;;;;;5057329;28;20217;-89
2023/08/01 00:27:43;;;;;;;7.10;2.90;;;;;;;;;;5056261;28;20238;-88
2023/08/01 00:30:11;;;;;;;5.03;3.20;;;;;;;;;;5056400;28;20680;-89
2023/08/01 00:32:38;;;;;;;4.33;3.20;;;;;;;;;;5056325;28;22127;-88
2023/08/01 00:35:05;;;;;;;4.20;3.03;;;;;;;;;;5056702;28;20197;-88
2023/08/01 00:37:32;;;;;;;6.00;2.90;;;;;;;;;;5056377;28;20221;-88
2023/08/01 00:40:01;;;;;;;7.73;3.57;;;;;;;;;;5056489;28;20755;-88
2023/08/01 00:42:28;;;;;;;3.30;2.83;;;;;;;;;;5054932;28;20703;-86
2023/08/01 00:44:55;;;;;;;3.67;2.87;;;;;;;;;;5055191;28;20209;-88
2023/08/01 00:47:22;;;;;;;4.27;3.13;;;;;;;;;;5052865;28;20245;-88
2023/08/01 00:49:52;;;;;;;3.63;3.23;;;;;;;;;;5056151;28;20205;-88
2023/08/01 00:52:19;;;;;;;6.83;3.50;;;;;;;;;;5055794;28;20225;-88
2023/08/01 00:54:46;;;;;;;5.57;3.33;;;;;;;;;;5056354;28;20226;-89
2023/08/01 00:57:14;;;;;;;6.77;3.93;;;;;;;;;;5055422;28;20238;-88
2023/08/01 00:59:41;;;;;;;5.35;3.67;;;;;;;;;;5041407;28;20198;-89
2023/08/01 01:02:09;;;;;;;7.97;3.53;;;;;;;;;;5037708;28;20237;-88
2023/08/01 01:04:36;;;;;;;4.03;3.17;;;;;;;;;;5036337;28;20217;-89
2023/08/01 01:07:04;;;;;;;4.90;3.87;;;;;;;;;;5034900;28;20238;-89
2023/08/01 01:09:32;;;;;;;5.67;3.40;;;;;;;;;;5035645;28;20233;-88
2023/08/01 01:11:59;;;;;;;4.20;3.50;;;;;;;;;;5035018;28;20739;-86
2023/08/01 01:14:28;;;;;;;4.60;3.27;;;;;;;;;;5035735;28;20223;-89
2023/08/01 01:16:56;;;;;;;5.15;3.50;;;;;;;;;;5035781;28;20244;-89
2023/08/01 01:19:23;;;;;;;4.43;3.50;;;;;;;;;;5036144;28;20574;-89
2023/08/01 01:21:51;;;;;;;8.00;3.83;;;;;;;;;;5035392;28;20237;-90
2023/08/01 01:24:20;;;;;;;4.53;3.57;;;;;;;;;;5036519;28;20213;-91
2023/08/01 01:26:47;;;;;;;4.75;3.72;;;;;;;;;;5034996;28;20223;-89
2023/08/01 01:29:15;;;;;;;4.57;3.40;;;;;;;;;;5035933;28;20218;-90
2023/08/01 01:31:42;;;;;;;5.60;3.25;;;;;;;;;;5034868;28;20907;-89
2023/08/01 01:34:10;;;;;;;7.77;3.50;;;;;;;;;;5035217;28;20229;-88
2023/08/01 01:36:37;;;;;;;6.77;3.83;;;;;;;;;;5035260;28;20234;-88
2023/08/01 01:39:05;;;;;;;5.07;3.20;;;;;;;;;;5035279;28;20194;-86
2023/08/01 01:41:32;;;;;;;5.03;2.93;;;;;;;;;;5034666;28;20199;-88
2023/08/01 01:43:59;;;;;;;3.93;3.33;;;;;;;;;;5035160;28;20207;-88
2023/08/01 01:46:26;;;;;;;7.50;3.57;;;;;;;;;;5033679;28;20235;-87
2023/08/01 01:48:53;;;;;;;6.37;3.33;;;;;;;;;;5034710;28;20234;-90
2023/08/01 01:51:21;;;;;;;3.60;2.97;;;;;;;;;;5035401;28;20206;-89
2023/08/01 01:53:48;;;;;;;5.20;3.33;;;;;;;;;;5034272;28;20259;-90
2023/08/01 01:56:16;;;;;;;5.57;3.40;;;;;;;;;;5034882;28;20336;-86
2023/08/01 01:58:43;;;;;;;5.97;3.47;;;;;;;;;;5033552;28;20730;-88
2023/08/01 02:01:11;;;;;;;7.90;3.87;;;;;;;;;;5034565;28;20214;-88
2023/08/01 02:03:38;;;;;;;4.77;3.30;;;;;;;;;;5034023;28;20234;-89
2023/08/01 02:06:05;;;;;;;4.63;3.50;;;;;;;;;;5034445;28;20224;-88
2023/08/01 02:08:32;;;;;;;4.87;2.93;;;;;;;;;;5034247;28;20246;-89
2023/08/01 02:11:00;;;;;;;4.23;3.20;;;;;;;;;;5034526;28;20234;-88
2023/08/01 02:13:29;;;;;;;4.30;3.28;;;;;;;;;;5034099;28;20257;-89
2023/08/01 02:15:56;;;;;;;4.63;3.30;;;;;;;;;;5034632;28;20238;-89
2023/08/01 02:18:23;;;;;;;5.33;3.17;;;;;;;;;;5034437;28;20246;-88
2023/08/01 02:20:50;;;;;;;3.87;3.10;;;;;;;;;;5035066;28;20854;-90
2023/08/01 02:23:17;;;;;;;4.83;2.67;;;;;;;;;;5033828;28;20676;-89
2023/08/01 02:25:49;;;;;;;4.37;2.53;;;;;;;;;;5034541;28;20264;-88
2023/08/01 02:28:16;;;;;;;3.23;2.90;;;;;;;;;;5034013;28;20239;-89
2023/08/01 02:30:45;;;;;;;4.60;2.80;;;;;;;;;;5034620;28;20238;-89
2023/08/01 02:33:12;;;;;;;3.13;2.80;;;;;;;;;;5034061;28;20238;-90
2023/08/01 02:35:40;;;;;;;2.83;2.53;;;;;;;;;;5034497;28;20692;-89
2023/08/01 02:38:07;;;;;;;4.83;2.40;;;;;;;;;;5034111;28;20246;-89
2023/08/01 02:40:34;;;;;;;4.47;2.93;;;;;;;;;;5035095;28;20191;-90
2023/08/01 02:43:01;;;;;;;3.30;2.63;;;;;;;;;;5034358;28;20241;-89
2023/08/01 02:45:28;;;;;;;3.93;2.77;;;;;;;;;;5033937;28;20222;-89
2023/08/01 02:47:57;;;;;;;6.78;2.63;;;;;;;;;;5032795;28;20239;-89
2023/08/01 02:50:24;;;;;;;2.53;2.30;;;;;;;;;;5033862;28;20202;-90
2023/08/01 02:52:51;;;;;;;5.23;3.07;;;;;;;;;;5033877;28;20241;-88
2023/08/01 02:55:18;;;;;;;4.33;2.77;;;;;;;;;;5034278;28;20723;-87
2023/08/01 02:57:45;;;;;;;2.73;2.33;;;;;;;;;;5034126;28;20246;-89
2023/08/01 03:00:12;;;;;;;5.43;2.55;;;;;;;;;;5034338;28;20215;-89
2023/08/01 03:02:39;;;;;;;4.95;2.75;;;;;;;;;;5033456;28;20241;-88
2023/08/01 03:05:09;;;;;;;3.30;2.70;;;;;;;;;;5034478;28;20202;-88
2023/08/01 03:07:36;;;;;;;2.92;2.65;;;;;;;;;;5033473;28;20246;-89
2023/08/01 03:10:04;;;;;;;2.90;2.40;;;;;;;;;;5035758;28;20210;-87
2023/08/01 03:12:31;;;;;;;3.67;2.80;;;;;;;;;;5037025;28;20700;-90
2023/08/01 03:14:58;;;;;;;3.73;2.47;;;;;;;;;;5038209;28;20253;-88
2023/08/01 03:17:25;;;;;;;3.17;2.60;;;;;;;;;;5037499;28;20712;-89
2023/08/01 03:19:53;;;;;;;3.03;2.73;;;;;;;;;;5037960;28;20215;-88
2023/08/01 03:22:21;;;;;;;3.65;2.50;;;;;;;;;;5037549;28;20258;-88
2023/08/01 03:24:48;;;;;;;3.03;2.73;;;;;;;;;;5037742;28;20210;-90
2023/08/01 03:27:15;;;;;;;4.00;2.90;;;;;;;;;;5037333;28;20235;-89
2023/08/01 03:29:42;;;;;;;3.83;2.83;;;;;;;;;;5037249;28;20218;-89
2023/08/01 03:32:09;;;;;;;4.68;3.13;;;;;;;;;;5037346;28;20222;-92
2023/08/01 03:34:38;;;;;;;4.82;2.90;;;;;;;;;;5037579;28;20762;-90
2023/08/01 03:37:06;;;;;;;3.60;2.60;;;;;;;;;;5037216;28;20238;-88
2023/08/01 03:39:34;;;;;;;3.65;2.83;;;;;;;;;;5037794;28;20247;-89
2023/08/01 03:42:02;;;;;;;7.47;3.05;;;;;;;;;;5037451;28;20234;-89
2023/08/01 03:44:29;;;;;;;3.22;2.78;;;;;;;;;;5037985;28;20229;-90
2023/08/01 03:46:56;;;;;;;4.70;2.60;;;;;;;;;;5036083;28;20844;-84
2023/08/01 03:49:23;;;;;;;4.07;2.75;;;;;;;;;;5035950;28;20210;-85
2023/08/01 03:51:50;;;;;;;4.30;3.47;;;;;;;;;;5035341;28;20241;-85
2023/08/01 03:54:17;;;;;;;3.40;2.72;;;;;;;;;;5036682;28;20227;-85
2023/08/01 03:56:45;;;;;;;5.55;2.80;;;;;;;;;;5036238;28;20243;-84
2023/08/01 03:59:13;;;;;;;4.00;2.30;;;;;;;;;;5036419;28;20563;-85
2023/08/01 04:01:40;;;;;;;5.28;2.65;;;;;;;;;;5036105;28;20673;-86
2023/08/01 04:04:07;;;;;;;3.53;2.73;;;;;;;;;;5036327;28;20198;-85
2023/08/01 04:06:34;;;;;;;3.93;2.90;;;;;;;;;;5035630;28;20708;-86
2023/08/01 04:09:01;;;;;;;4.83;2.87;;;;;;;;;;5036847;28;20207;-85
2023/08/01 04:11:29;;;;;;;3.78;3.10;;;;;;;;;;5035660;28;20313;-86
2023/08/01 04:13:58;;;;;;;3.72;3.03;;;;;;;;;;5036553;28;20222;-85
2023/08/01 04:16:25;;;;;;;3.58;2.22;;;;;;;;;;5035805;28;20285;-85
2023/08/01 04:18:52;;;;;;;2.65;2.40;;;;;;;;;;5036754;28;20307;-85
2023/08/01 04:21:19;;;;;;;5.93;2.53;;;;;;;;;;5036243;28;20207;-85
2023/08/01 04:23:46;;;;;;;5.05;2.80;;;;;;;;;;5035908;28;20612;-86
2023/08/01 04:26:13;;;;;;;3.70;2.50;;;;;;;;;;5036156;28;20784;-85
2023/08/01 04:28:40;;;;;;;4.05;2.70;;;;;;;;;;5035776;28;20708;-85
2023/08/01 04:31:08;;;;;;;3.38;2.60;;;;;;;;;;5036479;28;20301;-85
2023/08/01 04:33:35;;;;;;;3.53;2.90;;;;;;;;;;5035360;28;20241;-86
2023/08/01 04:36:02;;;;;;;3.00;2.70;;;;;;;;;;5036177;28;20289;-86
2023/08/01 04:38:29;;;;;;;3.30;2.63;;;;;;;;;;5035465;28;20250;-86
2023/08/01 04:40:56;;;;;;;2.63;2.20;;;;;;;;;;5036266;28;20206;-86
2023/08/01 04:43:23;;;;;;;4.37;2.50;;;;;;;;;;5035320;28;20234;-86
2023/08/01 04:45:50;;;;;;;2.95;2.60;;;;;;;;;;5035157;28;20242;-85
2023/08/01 04:48:19;;;;;;;4.22;3.30;;;;;;;;;;5033959;28;20230;-85
2023/08/01 04:50:46;;;;;;;3.70;3.00;;;;;;;;;;5034906;28;20211;-85
2023/08/01 04:53:13;;;;;;;4.90;3.38;;;;;;;;;;5035148;28;20291;-85
2023/08/01 04:55:41;;;;;;;5.10;3.08;;;;;;;;;;5035598;28;20231;-87
2023/08/01 04:58:08;;;;;;;3.95;2.70;;;;;;;;;;5035293;28;20241;-85
2023/08/01 05:00:35;;;;;;;6.20;3.10;;;;;;;;;;5035802;28;20217;-85
2023/08/01 05:03:02;;;;;;;3.65;3.00;;;;;;;;;;5035125;28;20269;-85
2023/08/01 05:05:31;;;;;;;5.07;2.80;;;;;;;;;;5035471;28;20203;-85
2023/08/01 05:07:58;;;;;;;5.38;3.13;;;;;;;;;;5034824;28;20238;-85
2023/08/01 05:10:25;;;;;;;2.88;2.63;;;;;;;;;;5034930;28;20680;-86
2023/08/01 05:12:52;;;;;;;3.13;2.87;;;;;;;;;;5034800;28;20613;-87
2023/08/01 05:15:19;;;;;;;3.13;2.47;;;;;;;;;;5034864;28;20727;-86
2023/08/01 05:17:46;;;;;;;5.60;2.97;;;;;;;;;;5034023;28;20241;-86
2023/08/01 05:20:13;;;;;;;4.00;2.37;;;;;;;;;;5034303;28;20214;-87
2023/08/01 05:22:42;;;;;;;2.60;2.27;;;;;;;;;;5034915;28;20285;-86
2023/08/01 05:25:09;;;;;;;3.33;2.43;;;;;;;;;;5034918;28;20549;-86
2023/08/01 05:27:36;;;;;;;4.97;3.10;;;;;;;;;;5034860;28;20253;-86
2023/08/01 05:30:03;;;;;;;4.67;2.90;;;;;;;;;;5035326;28;20248;-86
2023/08/01 05:32:30;;;;;;;4.07;2.70;;;;;;;;;;5034062;28;20230;-86
2023/08/01 05:34:57;;;;;;;3.13;2.33;;;;;;;;;;5035069;28;20345;-86
2023/08/01 05:37:24;;;;;;;2.40;2.20;;;;;;;;;;5043016;28;20226;-86
2023/08/01 05:39:53;;;;;;;1.90;1.70;;;;;;;;;;5055109;28;20208;-86
2023/08/01 05:42:20;;;;;;;2.60;2.40;;;;;;;;;;5054396;28;20578;-85
2023/08/01 05:44:47;;;;;;;3.10;2.50;;;;;;;;;;5054173;28;20198;-85
2023/08/01 05:47:14;;;;;;;3.57;2.90;;;;;;;;;;5052956;28;20241;-85
2023/08/01 05:49:41;;;;;;;3.40;2.90;;;;;;;;;;5034639;28;20205;-87
2023/08/01 05:52:09;;;;;;;4.47;3.10;;;;;;;;;;5032915;28;20262;-85
2023/08/01 05:54:36;;;;;;;5.07;3.33;;;;;;;;;;5034012;28;20704;-87
2023/08/01 05:57:04;;;;;;;3.13;2.77;;;;;;;;;;5033924;28;20740;-86
2023/08/01 05:59:31;;;;;;;3.80;3.00;;;;;;;;;;5034985;28;20212;-88
2023/08/01 06:01:59;;;;;;;5.40;3.50;;;;;;;;;;5033492;28;20242;-85
2023/08/01 06:04:26;;;;;;;3.40;2.87;;;;;;;;;;5030614;28;20649;-87
2023/08/01 06:06:53;;;;;;;3.63;3.07;;;;;;;;;;5025351;28;20238;-85
2023/08/01 06:09:20;;;;;;;5.43;3.50;;;;;;;;;;5040029;28;20194;-87
2023/08/01 06:11:47;;;;;;;3.10;2.80;;;;;;;;;;5053794;28;20232;-86
2023/08/01 06:14:16;;;;;;;5.00;3.20;;;;;;;;;;5053877;28;20213;-86
2023/08/01 06:16:43;;;;;;;3.50;2.57;;;;;;;;;;5053394;28;20229;-87
2023/08/01 06:19:11;;;;;;;2.50;2.30;;;;;;;;;;5054364;28;20206;-87
2023/08/01 06:21:38;;;;;;;3.67;2.63;;;;;;;;;;5053980;28;20655;-86
2023/08/01 06:24:05;;;;;;;3.97;2.57;;;;;;;;;;5034166;28;20661;-86
2023/08/01 06:26:32;;;;;;;6.20;3.27;;;;;;;;;;5033707;28;20599;-86
2023/08/01 06:28:59;;;;;;;4.50;2.80;;;;;;;;;;5033912;28;20236;-87
2023/08/01 06:31:28;;;;;;;3.97;2.67;;;;;;;;;;5034326;28;20206;-86
2023/08/01 06:33:55;;;;;;;3.93;2.90;;;;;;;;;;5035101;28;20226;-87
2023/08/01 06:36:22;;;;;;;4.20;2.80;;;;;;;;;;5033863;28;20239;-86
2023/08/01 06:38:50;;;;;;;2.90;2.57;;;;;;;;;;5034314;28;20223;-86
2023/08/01 06:41:17;;;;;;;2.90;2.50;;;;;;;;;;5034194;28;20202;-86
2023/08/01 06:43:44;;;;;;;3.03;2.70;;;;;;;;;;5034062;28;20253;-84
2023/08/01 06:46:11;;;;;;;2.07;1.90;;;;;;;;;;5036629;28;20245;-85
2023/08/01 06:48:39;;;;;;;2.90;2.50;;;;;;;;;;5036335;28;20242;-86
2023/08/01 06:51:06;;;;;;;2.97;2.67;;;;;;;;;;5033204;28;20612;-85
2023/08/01 06:53:33;;;;;;;2.87;2.57;;;;;;;;;;5037684;28;20755;-86
2023/08/01 06:56:00;;;;;;;4.77;2.03;;;;;;;;;;5037823;28;20241;-85
2023/08/01 06:58:27;;;;;;;2.90;2.27;;;;;;;;;;5039931;28;20244;-84
2023/08/01 07:00:54;;;;;;;3.73;2.60;;;;;;;;;;5037655;28;20209;-85
2023/08/01 07:03:21;;;;;;;2.90;2.17;;;;;;;;;;5037251;28;20666;-86
2023/08/01 07:05:50;;;;;;;2.60;2.40;;;;;;;;;;5037719;28;20218;-87
2023/08/01 07:08:17;;;;;;;3.43;2.47;;;;;;;;;;5037014;28;20238;-86
2023/08/01 07:10:44;;;;;;;3.93;2.60;;;;;;;;;;5037713;28;20214;-86
2023/08/01 07:13:11;;;;;;;2.80;2.50;;;;;;;;;;5036761;28;20231;-85
2023/08/01 07:15:38;;;;;;;3.80;2.87;;;;;;;;;;5037316;28;20226;-85
2023/08/01 07:18:05;;;;;;;3.93;2.60;;;;;;;;;;5036421;28;20234;-85
2023/08/01 07:20:32;;;;;;;2.93;2.47;;;;;;;;;;5036992;28;20687;-85
2023/08/01 07:23:00;;;;;;;3.03;2.57;;;;;;;;;;5036915;28;20238;-87
2023/08/01 07:25:27;;;;;;;2.83;2.20;;;;;;;;;;5038246;28;20210;-89
2023/08/01 07:27:54;;;;;;;2.20;2.00;;;;;;;;;;5037881;28;20242;-86
2023/08/01 07:30:22;;;;;;;1.97;1.87;;;;;;;;;;5031717;28;20210;-87
2023/08/01 07:32:49;;;;;;;1.90;1.80;;;;;;;;;;5033145;28;20234;-87
2023/08/01 07:35:16;;;;;;;2.23;1.90;;;;;;;;;;5036381;28;20229;-87
2023/08/01 07:37:43;;;;;;;2.47;2.27;;;;;;;;;;5036048;28;20234;-86
2023/08/01 07:40:12;;;;;;;2.30;2.07;;;;;;;;;;5032536;28;20669;-87
2023/08/01 07:42:39;;;;;;;2.00;1.80;;;;;;;;;;5038015;28;20234;-87
2023/08/01 07:45:07;;;;;;;3.67;2.17;;;;;;;;;;5037741;28;20199;-88
2023/08/01 07:47:34;;;;;;;1.63;1.50;;;;;;;;;;5035677;28;20289;-88
2023/08/01 07:50:01;;;;;;;2.70;1.43;;;;;;;;;;5038569;28;20211;-87
2023/08/01 07:52:28;;;;;;;1.50;1.40;;;;;;;;;;5027862;28;20240;-87
2023/08/01 07:54:57;;;;;;;1.50;1.40;;;;;;;;;;5038403;28;20210;-86
2023/08/01 07:57:25;;;;;;;1.20;1.10;;;;;;;;;;5037798;28;20332;-87
2023/08/01 07:59:52;;;;;;;0.82;0.82;;;;;;;;;;5038668;28;20199;-87
2023/08/01 08:02:19;;;;;;;1.27;1.17;;;;;;;;;;5037812;28;20245;-88
2023/08/01 08:04:47;;;;;;;1.57;1.00;;;;;;;;;;5039450;28;20211;-87
2023/08/01 08:07:14;;;;;;;0.90;0.90;;;;;;;;;;5037542;28;20245;-88
2023/08/01 08:09:41;;;;;;;1.27;1.03;;;;;;;;;;5039034;28;20218;-87
2023/08/01 08:12:08;;;;;;;1.40;1.00;;;;;;;;;;5036589;28;20633;-88
2023/08/01 08:14:38;;;;;;;1.20;1.10;;;;;;;;;;5037144;28;20576;-87
2023/08/01 08:17:05;;;;;;;1.00;1.00;;;;;;;;;;5035975;28;20239;-87
2023/08/01 08:19:32;;;;;;;1.60;1.00;;;;;;;;;;5037324;28;20211;-87
2023/08/01 08:21:59;;;;;;;1.90;1.20;;;;;;;;;;5044312;28;20230;-86
2023/08/01 08:24:26;;;;;;;0.97;0.97;;;;;;;;;;5037672;28;20214;-88
2023/08/01 08:26:53;;;;;;;1.27;1.10;;;;;;;;;;5037422;28;20234;-87
2023/08/01 08:29:20;;;;;;;1.23;0.80;;;;;;;;;;5036764;28;20568;-88
2023/08/01 08:31:49;;;;;;;1.50;1.40;;;;;;;;;;5037212;28;20242;-87
2023/08/01 08:34:16;;;;;;;1.63;1.53;;;;;;;;;;5054006;28;20190;-87
2023/08/01 08:36:43;;;;;;;1.70;1.60;;;;;;;;;;5036426;28;20241;-87
2023/08/01 08:39:10;;;;;;;1.93;1.67;;;;;;;;;;5036782;28;20191;-87
2023/08/01 08:41:40;;;;;;;1.60;1.50;;;;;;;;;;5036284;28;20214;-88
2023/08/01 08:44:09;;;;;;;1.52;1.42;;;;;;;;;;5036546;28;20253;-87
2023/08/01 08:46:42;;;;;;;1.33;1.23;;;;;;;;;;5035902;28;20281;-86
2023/08/01 08:49:11;;;;;;;1.60;1.50;;;;;;;;;;5036201;28;20695;-88
2023/08/01 08:51:38;;;;;;;1.30;1.20;;;;;;;;;;5036088;28;20207;-87
2023/08/01 08:54:06;;;;;;;1.92;1.77;;;;;;;;;;5036618;28;20620;-88
2023/08/01 08:56:35;;;;;;;1.08;1.05;;;;;;;;;;5036191;28;20234;-88
2023/08/01 08:59:02;;;;;;;1.30;1.20;;;;;;;;;;5036545;28;20207;-87
2023/08/01 09:01:31;;;;;;;1.77;1.50;;;;;;;;;;5037018;28;20198;-88
2023/08/01 09:03:58;;;;;;;1.10;0.98;;;;;;;;;;5044666;28;20293;-86
2023/08/01 09:06:30;;;;;;;1.40;1.30;;;;;;;;;;5035431;28;20238;-87
2023/08/01 09:08:57;;;;;;;0.95;0.95;;;;;;;;;;5034958;28;20687;-87
2023/08/01 09:11:24;;;;;;;1.73;1.10;;;;;;;;;;5035606;28;20290;-88
2023/08/01 09:13:51;;;;;;;1.13;1.00;;;;;;;;;;5039085;28;20249;-89
2023/08/01 09:16:19;;;;;;;0.98;0.90;;;;;;;;;;5043359;28;20230;-90
2023/08/01 09:18:51;;;;;;;3.00;1.13;;;;;;;;;;5034895;28;20242;-87
2023/08/01 09:21:19;;;;;;;3.75;1.35;;;;;;;;;;5039427;28;20207;-87
2023/08/01 09:23:48;;;;;;;1.20;1.10;;;;;;;;;;5033752;28;20227;-87
2023/08/01 09:26:15;;;;;;;1.40;1.30;;;;;;;;;;5042671;28;20595;-87
2023/08/01 09:28:42;;;;;;;2.38;0.93;;;;;;;;;;5038349;28;20229;-86
2023/08/01 09:31:11;;;;;;;0.93;0.90;;;;;;;;;;5034812;28;20294;-87
2023/08/01 09:33:41;;;;;;;1.25;0.90;;;;;;;;;;5033551;28;20234;-88
2023/08/01 09:36:09;;;;;;;1.00;1.00;;;;;;;;;;5034177;28;20223;-87
2023/08/01 09:38:36;;;;;;;1.70;0.93;;;;;;;;;;5034944;28;20226;-89
2023/08/01 09:41:04;;;;;;;0.70;0.70;;;;;;;;;;5035060;28;20692;-87
2023/08/01 09:43:35;;;;;;;0.90;0.75;;;;;;;;;;5034010;28;20232;-88
2023/08/01 09:46:02;;;;;;;0.90;0.90;;;;;;;;;;5035206;28;20782;-87
2023/08/01 09:48:30;;;;;;;0.88;0.88;;;;;;;;;;5034271;28;20261;-86
2023/08/01 09:51:07;;;;;;;0.70;0.70;;;;;;;;;;5034428;28;20605;-86
2023/08/01 09:53:34;;;;;;;0.52;0.52;;;;;;;;;;5033603;28;20261;-88
2023/08/01 09:56:02;;;;;;;0.57;0.57;;;;;;;;;;5034548;28;20231;-87
2023/08/01 09:58:32;;;;;;;0.70;0.70;;;;;;;;;;5033847;28;20525;-89
2023/08/01 10:00:59;;;;;;;0.93;0.93;;;;;;;;;;5041062;28;20214;-91
2023/08/01 10:03:28;;;;;;;0.80;0.80;;;;;;;;;;5043401;28;20229;-90
2023/08/01 10:05:56;;;;;;;1.75;0.98;;;;;;;;;;5038916;28;20257;-90
2023/08/01 10:08:23;;;;;;;2.40;1.00;;;;;;;;;;5040069;28;20226;-90
2023/08/01 10:10:51;;;;;;;1.85;0.75;;;;;;;;;;5038135;28;20209;-91
2023/08/01 10:13:18;;;;;;;0.57;0.57;;;;;;;;;;5051352;28;20268;-89
2023/08/01 10:15:47;;;;;;;1.42;0.80;;;;;;;;;;5034410;28;20598;-91
2023/08/01 10:18:15;;;;;;;0.75;0.73;;;;;;;;;;5034054;28;20226;-90
2023/08/01 10:20:42;;;;;;;0.60;0.60;;;;;;;;;;5034931;28;20206;-89
2023/08/01 10:23:09;;;;;;;1.45;0.75;;;;;;;;;;5042278;28;20233;-90
2023/08/01 10:25:38;;;;;;;0.75;0.75;;;;;;;;;;5033592;28;20696;-89
2023/08/01 10:28:06;;;;;;;1.77;0.90;;;;;;;;;;5034053;28;20646;-90
2023/08/01 10:30:34;;;;;;;3.55;2.35;;;;;;;;;;5033799;28;20211;-89
2023/08/01 10:33:02;;;;;;;3.28;0.93;;;;;;;;;;5034717;28;20223;-89
2023/08/01 10:35:36;;;;;;;1.85;1.13;;;;;;;;;;5034775;28;20202;-90
2023/08/01 10:38:08;;;;;;;1.27;1.15;;;;;;;;;;5041254;28;20221;-88
2023/08/01 10:40:36;;;;;;;1.80;1.00;;;;;;;;;;5044121;28;20230;-88
2023/08/01 10:43:03;;;;;;;1.20;1.10;;;;;;;;;;5035326;28;20226;-89
2023/08/01 10:45:30;;;;;;;2.80;1.35;;;;;;;;;;5033803;28;20210;-89
2023/08/01 10:48:09;;;;;;;1.08;0.98;;;;;;;;;;5035337;28;20228;-89
2023/08/01 10:50:36;;;;;;;1.65;1.23;;;;;;;;;;5035385;28;20198;-88
2023/08/01 10:53:06;;;;;;;2.92;1.13;;;;;;;;;;5041278;28;20252;-87
2023/08/01 10:55:40;;;;;;;6.97;1.10;;;;;;;;;;5034297;28;20281;-86
2023/08/01 10:58:07;;;;;;;1.17;0.80;;;;;;;;;;5034993;28;20233;-87
2023/08/01 11:00:34;;;;;;;2.22;1.27;;;;;;;;;;5044568;28;20202;-86
2023/08/01 11:03:01;;;;;;;1.17;1.00;;;;;;;;;;5038216;28;20727;-87
2023/08/01 11:05:30;;;;;;;1.08;1.00;;;;;;;;;;5041050;28;20229;-87
2023/08/01 11:07:57;;;;;;;1.20;1.10;;;;;;;;;;5033345;28;20215;-87
2023/08/01 11:10:26;;;;;;;1.17;1.08;;;;;;;;;;5051133;28;20284;-87
2023/08/01 11:12:54;;;;;;;1.25;1.08;;;;;;;;;;5044428;28;20226;-85
2023/08/01 11:15:21;;;;;;;1.20;0.93;;;;;;;;;;5036653;28;20206;-87
2023/08/01 11:17:49;;;;;;;4.85;1.20;;;;;;;;;;5032408;28;20238;-88
2023/08/01 11:20:16;;;;;;;1.67;1.20;;;;;;;;;;5024673;28;20238;-87
2023/08/01 11:22:53;;;;;;;1.20;1.10;;;;;;;;;;5035844;28;20684;-87
2023/08/01 11:25:20;;;;;;;1.70;0.98;;;;;;;;;;5020423;28;20211;-88
2023/08/01 11:27:47;;;;;;;1.58;1.15;;;;;;;;;;5032766;28;20238;-86
2023/08/01 11:30:14;;;;;;;1.55;1.40;;;;;;;;;;5032641;28;20213;-87
2023/08/01 11:32:41;;;;;;;2.63;1.20;;;;;;;;;;5036298;28;20230;-86
2023/08/01 11:35:09;;;;;;;0.98;0.98;;;;;;;;;;5037096;28;20217;-86
2023/08/01 11:37:39;;;;;;;1.27;1.08;;;;;;;;;;5047441;28;20238;-86
2023/08/01 11:40:09;;;;;;;1.95;1.08;;;;;;;;;;5042306;28;20661;-87
2023/08/01 11:42:36;;;;;;;1.50;1.30;;;;;;;;;;5044583;28;20234;-88
2023/08/01 11:45:10;;;;;;;1.63;1.15;;;;;;;;;;5051736;28;20206;-89
2023/08/01 11:47:37;;;;;;;1.20;1.02;;;;;;;;;;5044818;28;20242;-87
2023/08/01 11:50:05;;;;;;;1.35;0.90;;;;;;;;;;5041234;28;20565;-87
2023/08/01 11:52:32;;;;;;;1.38;0.95;;;;;;;;;;5044041;28;20627;-90
2023/08/01 11:54:59;;;;;;;1.58;1.10;;;;;;;;;;5045746;28;20202;-90
2023/08/01 11:57:27;;;;;;;3.08;1.00;;;;;;;;;;5035823;28;20704;-87
2023/08/01 11:59:56;;;;;;;1.25;1.08;;;;;;;;;;5036809;28;20668;-88
2023/08/01 12:02:24;;;;;;;2.13;1.13;;;;;;;;;;5016663;28;20231;-90
2023/08/01 12:04:51;;;;;;;3.05;0.90;;;;;;;;;;5016372;28;20207;-87
2023/08/01 12:07:18;;;;;;;1.48;0.88;;;;;;;;;;5017347;28;20238;-86
2023/08/01 12:09:45;;;;;;;1.77;1.15;;;;;;;;;;5040499;28;20216;-86
2023/08/01 12:12:12;;;;;;;0.93;0.93;;;;;;;;;;5045769;28;20230;-86
2023/08/01 12:14:44;;;;;;;1.42;1.08;;;;;;;;;;5038600;28;20209;-87
2023/08/01 12:17:11;;;;;;;2.92;1.40;;;;;;;;;;5039808;28;20235;-87
2023/08/01 12:19:38;;;;;;;2.03;1.77;;;;;;;;;;5036172;28;20213;-87
2023/08/01 12:22:05;;;;;;;1.08;0.98;;;;;;;;;;5035609;28;20230;-87
2023/08/01 12:24:33;;;;;;;1.10;1.00;;;;;;;;;;5035714;28;20213;-88
2023/08/01 12:27:00;;;;;;;1.10;1.00;;;;;;;;;;5034019;28;20260;-86
2023/08/01 12:29:27;;;;;;;1.23;1.00;;;;;;;;;;5036959;28;20405;-85
2023/08/01 12:31:56;;;;;;;1.77;0.85;;;;;;;;;;5034009;28;20235;-87
2023/08/01 12:34:23;;;;;;;1.08;0.95;;;;;;;;;;5035637;28;20202;-87
2023/08/01 12:36:50;;;;;;;2.42;1.00;;;;;;;;;;5035360;28;20719;-87
2023/08/01 12:39:17;;;;;;;1.05;0.90;;;;;;;;;;5035537;28;20233;-86
2023/08/01 12:41:44;;;;;;;1.17;0.95;;;;;;;;;;5026953;28;21547;-86
2023/08/01 12:44:15;;;;;;;1.85;1.55;;;;;;;;;;5036105;28;20576;-87
2023/08/01 12:46:44;;;;;;;2.75;0.77;;;;;;;;;;5034611;28;20317;-86
2023/08/01 12:49:12;;;;;;;1.17;0.95;;;;;;;;;;5043168;28;20264;-86
2023/08/01 12:51:39;;;;;;;1.75;1.08;;;;;;;;;;5038156;28;20202;-85
2023/08/01 12:54:06;;;;;;;1.55;1.10;;;;;;;;;;5040693;28;20298;-86
2023/08/01 12:56:34;;;;;;;1.60;1.27;;;;;;;;;;5034602;28;20237;-86
2023/08/01 12:59:01;;;;;;;2.30;1.52;;;;;;;;;;5038442;28;20590;-86
2023/08/01 13:01:28;;;;;;;1.98;1.05;;;;;;;;;;5034334;28;20656;-87
2023/08/01 13:03:55;;;;;;;2.28;1.17;;;;;;;;;;5034989;28;20204;-86
2023/08/01 13:06:23;;;;;;;1.20;1.10;;;;;;;;;;5051746;28;20313;-92
2023/08/01 13:08:50;;;;;;;1.00;0.90;;;;;;;;;;5034831;28;20728;-93
2023/08/01 13:11:17;;;;;;;2.50;0.95;;;;;;;;;;5036114;28;20214;-90
2023/08/01 13:13:45;;;;;;;0.82;0.80;;;;;;;;;;5038543;28;20904;-86
2023/08/01 13:16:12;;;;;;;1.40;0.85;;;;;;;;;;5039862;28;20934;-85
2023/08/01 13:18:43;;;;;;;1.55;1.00;;;;;;;;;;5034878;28;20238;-88
2023/08/01 13:21:11;;;;;;;0.73;0.73;;;;;;;;;;5035512;28;20199;-87
2023/08/01 13:23:39;;;;;;;2.28;1.25;;;;;;;;;;5043572;28;20260;-88
2023/08/01 13:26:06;;;;;;;2.40;1.58;;;;;;;;;;5035454;28;20223;-87
2023/08/01 13:28:33;;;;;;;1.85;0.88;;;;;;;;;;5034585;28;20256;-87
2023/08/01 13:31:00;;;;;;;1.17;1.00;;;;;;;;;;5034136;28;20217;-86
2023/08/01 13:33:27;;;;;;;2.42;1.50;;;;;;;;;;5032421;28;20246;-87
2023/08/01 13:35:55;;;;;;;2.75;1.30;;;;;;;;;;5034424;28;20704;-88
2023/08/01 13:38:22;;;;;;;1.60;1.15;;;;;;;;;;5034242;28;20705;-87
2023/08/01 13:40:50;;;;;;;2.50;1.23;;;;;;;;;;5035104;28;20215;-88
2023/08/01 13:43:17;;;;;;;2.25;1.48;;;;;;;;;;5034679;28;20227;-88
2023/08/01 13:45:44;;;;;;;1.30;1.20;;;;;;;;;;5034925;28;20199;-88
2023/08/01 13:48:12;;;;;;;1.27;0.95;;;;;;;;;;5035178;28;20232;-87
2023/08/01 13:50:39;;;;;;;1.02;1.02;;;;;;;;;;5035135;28;20696;-89
2023/08/01 13:53:10;;;;;;;2.63;1.35;;;;;;;;;;5034214;28;20237;-89
2023/08/01 13:55:37;;;;;;;2.55;1.13;;;;;;;;;;5038772;28;20214;-87
2023/08/01 13:58:05;;;;;;;2.78;1.00;;;;;;;;;;5034491;28;20226;-86
2023/08/01 14:00:33;;;;;;;3.55;1.25;;;;;;;;;;5036420;28;20203;-86
2023/08/01 14:03:01;;;;;;;1.25;1.15;;;;;;;;;;5034169;28;20300;-88
2023/08/01 14:05:28;;;;;;;1.73;1.27;;;;;;;;;;5034362;28;20684;-87
2023/08/01 14:07:56;;;;;;;1.55;1.13;;;;;;;;;;5034181;28;20234;-88
2023/08/01 14:10:23;;;;;;;2.58;1.30;;;;;;;;;;5034789;28;20206;-88
2023/08/01 14:12:50;;;;;;;2.92;1.42;;;;;;;;;;5018864;28;20245;-86
2023/08/01 14:15:19;;;;;;;1.58;1.20;;;;;;;;;;5034665;28;20215;-89
2023/08/01 14:17:46;;;;;;;4.32;1.08;;;;;;;;;;5034022;28;20246;-87
2023/08/01 14:20:13;;;;;;;2.22;1.00;;;;;;;;;;5035368;28;20211;-89
2023/08/01 14:22:43;;;;;;;1.45;1.23;;;;;;;;;;5034546;28;20234;-87
2023/08/01 14:25:10;;;;;;;1.30;1.20;;;;;;;;;;5041568;28;20198;-88
2023/08/01 14:27:38;;;;;;;3.65;1.38;;;;;;;;;;5034556;28;20223;-89
2023/08/01 14:30:06;;;;;;;160.63;27.75;;;;;;;;;;5035094;28;20218;-92
2023/08/01 14:32:34;;;;;;;1.77;1.25;;;;;;;;;;5034442;28;20234;-87
2023/08/01 14:35:01;;;;;;;1.77;1.20;;;;;;;;;;5039959;28;20214;-89
2023/08/01 14:37:29;;;;;;;1.33;1.20;;;;;;;;;;5032726;28;20318;-87
2023/08/01 14:39:56;;;;;;;1.58;1.10;;;;;;;;;;5033773;28;20273;-86
2023/08/01 14:42:23;;;;;;;4.13;1.48;;;;;;;;;;5034839;28;20269;-87
2023/08/01 14:44:54;;;;;;;2.85;1.30;;;;;;;;;;5033886;28;20202;-87